sensor_id;sensor_type;location;lat;lon;timestamp;pressure;altitude;pressure_sealevel;temperature;humidity
74524;BME280;63074;44.696;10.358;2023-09-19T00:00:24;99698.66;;;27.88;100.00
74524;BME280;63074;44.696;10.358;2023-09-19T00:02:57;99708.63;;;27.77;100.00
74524;BME280;63074;44.696;10.358;2023-09-19T00:05:28;99702.31;;;27.45;100.00
74524;BME280;63074;44.696;10.358;2023-09-19T00:07:56;99699.19;;;27.47;100.00
74524;BME280;63074;44.696;10.358;2023-09-19T00:10:25;99709.06;;;27.79;100.00
74524;BME280;63074;44.696;10.358;2023-09-19T00:12:55;99698.97;;;27.68;100.00
74524;BME280;63074;44.696;10.358;2023-09-19T00:15:25;99704.19;;;27.73;100.00
74524;BME280;63074;44.696;10.358;2023-09-19T00:17:55;99693.56;;;27.90;100.00
74524;BME280;63074;44.696;10.358;2023-09-19T00:20:22;99690.56;;;28.15;100.00
74524;BME280;63074;44.696;10.358;2023-09-19T00:22:50;99689.44;;;28.35;100.00
74524;BME280;63074;44.696;10.358;2023-09-19T00:25:18;99702.22;;;27.73;100.00
74524;BME280;63074;44.696;10.358;2023-09-19T00:27:44;99703.09;;;27.46;100.00
74524;BME280;63074;44.696;10.358;2023-09-19T00:30:12;99708.13;;;27.72;100.00
74524;BME280;63074;44.696;10.358;2023-09-19T00:32:48;99699.59;;;27.61;100.00
74524;BME280;63074;44.696;10.358;2023-09-19T00:35:15;99698.94;;;27.36;100.00
74524;BME280;63074;44.696;10.358;2023-09-19T00:37:42;99691.19;;;27.73;100.00
74524;BME280;63074;44.696;10.358;2023-09-19T00:40:09;99687.69;;;26.98;100.00
74524;BME280;63074;44.696;10.358;2023-09-19T00:42:41;99689.34;;;27.62;100.00
74524;BME280;63074;44.696;10.358;2023-09-19T00:45:09;99688.63;;;27.65;100.00
74524;BME280;63074;44.696;10.358;2023-09-19T00:47:46;99692.97;;;27.18;100.00
74524;BME280;63074;44.696;10.358;2023-09-19T00:50:18;99690.38;;;27.73;100.00
74524;BME280;63074;44.696;10.358;2023-09-19T00:52:47;99682.00;;;27.53;100.00
74524;BME280;63074;44.696;10.358;2023-09-19T00:55:15;99682.66;;;27.31;100.00
74524;BME280;63074;44.696;10.358;2023-09-19T00:57:42;99684.19;;;26.85;100.00
74524;BME280;63074;44.696;10.358;2023-09-19T01:00:09;99678.13;;;26.79;100.00
74524;BME280;63074;44.696;10.358;2023-09-19T01:02:42;99672.19;;;26.49;100.00
74524;BME280;63074;44.696;10.358;2023-09-19T01:05:09;99676.41;;;27.18;100.00
74524;BME280;63074;44.696;10.358;2023-09-19T01:07:36;99678.28;;;27.46;100.00
74524;BME280;63074;44.696;10.358;2023-09-19T01:10:17;99683.50;;;27.82;100.00
74524;BME280;63074;44.696;10.358;2023-09-19T01:15:28;99670.66;;;26.80;100.00
74524;BME280;63074;44.696;10.358;2023-09-19T01:21:36;99666.00;;;26.40;100.00
74524;BME280;63074;44.696;10.358;2023-09-19T01:26:42;99659.75;;;26.55;100.00
74524;BME280;63074;44.696;10.358;2023-09-19T01:29:44;99664.47;;;26.55;100.00
74524;BME280;63074;44.696;10.358;2023-09-19T01:32:16;99664.44;;;26.83;100.00
74524;BME280;63074;44.696;10.358;2023-09-19T01:34:49;99653.56;;;26.74;100.00
74524;BME280;63074;44.696;10.358;2023-09-19T01:37:20;99654.88;;;25.84;100.00
74524;BME280;63074;44.696;10.358;2023-09-19T01:40:04;99646.28;;;25.98;100.00
74524;BME280;63074;44.696;10.358;2023-09-19T01:45:51;99642.56;;;26.46;100.00
74524;BME280;63074;44.696;10.358;2023-09-19T01:51:01;99632.59;;;26.42;100.00
74524;BME280;63074;44.696;10.358;2023-09-19T01:56:16;99632.06;;;25.72;100.00
74524;BME280;63074;44.696;10.358;2023-09-19T01:58:50;99631.03;;;25.76;100.00
74524;BME280;63074;44.696;10.358;2023-09-19T02:01:22;99630.59;;;25.50;100.00
74524;BME280;63074;44.696;10.358;2023-09-19T02:03:50;99631.69;;;26.38;100.00
74524;BME280;63074;44.696;10.358;2023-09-19T02:06:18;99633.72;;;26.01;100.00
74524;BME280;63074;44.696;10.358;2023-09-19T02:08:45;99634.63;;;26.17;100.00
74524;BME280;63074;44.696;10.358;2023-09-19T02:11:12;99622.88;;;25.92;100.00
74524;BME280;63074;44.696;10.358;2023-09-19T02:13:39;99627.03;;;25.74;100.00
74524;BME280;63074;44.696;10.358;2023-09-19T02:16:06;99622.59;;;26.49;100.00
74524;BME280;63074;44.696;10.358;2023-09-19T02:18:33;99614.75;;;25.47;100.00
74524;BME280;63074;44.696;10.358;2023-09-19T02:21:02;99608.81;;;25.45;100.00
74524;BME280;63074;44.696;10.358;2023-09-19T02:23:30;99596.75;;;26.14;100.00
74524;BME280;63074;44.696;10.358;2023-09-19T02:25:56;99603.09;;;25.38;100.00
74524;BME280;63074;44.696;10.358;2023-09-19T02:28:32;99603.06;;;26.54;100.00
74524;BME280;63074;44.696;10.358;2023-09-19T02:30:58;99593.00;;;25.54;100.00
74524;BME280;63074;44.696;10.358;2023-09-19T02:33:24;99600.78;;;26.16;100.00
74524;BME280;63074;44.696;10.358;2023-09-19T02:35:55;99593.06;;;26.22;100.00
74524;BME280;63074;44.696;10.358;2023-09-19T02:38:24;99603.88;;;26.15;100.00
74524;BME280;63074;44.696;10.358;2023-09-19T02:40:51;99602.34;;;25.89;100.00
74524;BME280;63074;44.696;10.358;2023-09-19T02:43:17;99598.38;;;25.75;100.00
74524;BME280;63074;44.696;10.358;2023-09-19T02:45:45;99596.06;;;26.17;100.00
74524;BME280;63074;44.696;10.358;2023-09-19T02:48:20;99606.44;;;26.64;100.00
74524;BME280;63074;44.696;10.358;2023-09-19T02:50:50;99604.75;;;26.90;100.00
74524;BME280;63074;44.696;10.358;2023-09-19T02:53:17;99600.22;;;27.61;100.00
74524;BME280;63074;44.696;10.358;2023-09-19T02:55:43;99610.78;;;27.08;100.00
74524;BME280;63074;44.696;10.358;2023-09-19T02:58:09;99609.00;;;28.40;100.00
74524;BME280;63074;44.696;10.358;2023-09-19T03:00:38;99613.03;;;27.69;100.00
74524;BME280;63074;44.696;10.358;2023-09-19T03:03:04;99620.44;;;27.34;100.00
74524;BME280;63074;44.696;10.358;2023-09-19T03:05:32;99610.50;;;28.76;100.00
74524;BME280;63074;44.696;10.358;2023-09-19T03:07:59;99607.94;;;28.26;100.00
74524;BME280;63074;44.696;10.358;2023-09-19T03:10:28;99616.34;;;27.94;100.00
74524;BME280;63074;44.696;10.358;2023-09-19T03:12:55;99616.91;;;28.03;100.00
74524;BME280;63074;44.696;10.358;2023-09-19T03:15:21;99621.72;;;28.06;100.00
74524;BME280;63074;44.696;10.358;2023-09-19T03:17:49;99616.19;;;28.06;100.00
74524;BME280;63074;44.696;10.358;2023-09-19T03:20:15;99616.66;;;26.35;100.00
74524;BME280;63074;44.696;10.358;2023-09-19T03:22:45;99629.19;;;25.80;100.00
74524;BME280;63074;44.696;10.358;2023-09-19T03:25:12;99627.81;;;25.99;100.00
74524;BME280;63074;44.696;10.358;2023-09-19T03:27:40;99631.59;;;26.34;100.00
74524;BME280;63074;44.696;10.358;2023-09-19T03:30:06;99635.41;;;27.01;100.00
74524;BME280;63074;44.696;10.358;2023-09-19T03:32:37;99635.84;;;27.03;100.00
74524;BME280;63074;44.696;10.358;2023-09-19T03:35:09;99637.88;;;27.22;100.00
74524;BME280;63074;44.696;10.358;2023-09-19T03:37:35;99633.47;;;26.89;100.00
74524;BME280;63074;44.696;10.358;2023-09-19T03:40:01;99635.78;;;26.87;100.00
74524;BME280;63074;44.696;10.358;2023-09-19T03:42:31;99634.88;;;27.27;100.00
74524;BME280;63074;44.696;10.358;2023-09-19T03:44:57;99642.06;;;27.32;100.00
74524;BME280;63074;44.696;10.358;2023-09-19T03:47:23;99648.91;;;27.53;100.00
74524;BME280;63074;44.696;10.358;2023-09-19T03:49:50;99643.56;;;27.45;100.00
74524;BME280;63074;44.696;10.358;2023-09-19T03:52:16;99651.22;;;27.20;100.00
74524;BME280;63074;44.696;10.358;2023-09-19T03:54:42;99649.97;;;27.17;100.00
74524;BME280;63074;44.696;10.358;2023-09-19T03:57:09;99647.06;;;27.42;100.00
74524;BME280;63074;44.696;10.358;2023-09-19T03:59:35;99646.69;;;27.28;100.00
74524;BME280;63074;44.696;10.358;2023-09-19T04:02:02;99642.09;;;27.82;100.00
74524;BME280;63074;44.696;10.358;2023-09-19T04:04:28;99649.41;;;27.75;100.00
74524;BME280;63074;44.696;10.358;2023-09-19T04:06:55;99653.56;;;27.65;100.00
74524;BME280;63074;44.696;10.358;2023-09-19T04:09:21;99651.50;;;26.03;100.00
74524;BME280;63074;44.696;10.358;2023-09-19T04:11:47;99650.13;;;26.49;100.00
74524;BME280;63074;44.696;10.358;2023-09-19T04:14:15;99650.53;;;25.83;100.00
74524;BME280;63074;44.696;10.358;2023-09-19T04:16:42;99640.38;;;26.00;100.00
74524;BME280;63074;44.696;10.358;2023-09-19T04:19:08;99635.25;;;25.98;100.00
74524;BME280;63074;44.696;10.358;2023-09-19T04:21:34;99639.81;;;26.06;100.00
74524;BME280;63074;44.696;10.358;2023-09-19T04:24:00;99648.53;;;26.92;100.00
74524;BME280;63074;44.696;10.358;2023-09-19T04:26:26;99642.25;;;27.07;100.00
74524;BME280;63074;44.696;10.358;2023-09-19T04:28:53;99644.75;;;28.14;100.00
74524;BME280;63074;44.696;10.358;2023-09-19T04:31:19;99659.78;;;27.62;100.00
74524;BME280;63074;44.696;10.358;2023-09-19T04:33:46;99649.94;;;27.80;100.00
74524;BME280;63074;44.696;10.358;2023-09-19T04:36:12;99651.75;;;26.50;100.00
74524;BME280;63074;44.696;10.358;2023-09-19T04:38:39;99651.41;;;26.96;100.00
74524;BME280;63074;44.696;10.358;2023-09-19T04:41:06;99648.06;;;26.74;100.00
74524;BME280;63074;44.696;10.358;2023-09-19T04:43:32;99641.19;;;26.68;100.00
74524;BME280;63074;44.696;10.358;2023-09-19T04:45:58;99651.25;;;26.76;100.00
74524;BME280;63074;44.696;10.358;2023-09-19T04:48:26;99661.75;;;26.86;100.00
74524;BME280;63074;44.696;10.358;2023-09-19T04:50:52;99656.66;;;27.01;100.00
74524;BME280;63074;44.696;10.358;2023-09-19T04:53:19;99653.47;;;26.03;100.00
74524;BME280;63074;44.696;10.358;2023-09-19T04:55:52;99660.72;;;25.83;100.00
74524;BME280;63074;44.696;10.358;2023-09-19T04:58:19;99662.88;;;25.04;100.00
74524;BME280;63074;44.696;10.358;2023-09-19T05:00:46;99665.31;;;24.85;100.00
74524;BME280;63074;44.696;10.358;2023-09-19T05:03:12;99669.44;;;25.24;100.00
74524;BME280;63074;44.696;10.358;2023-09-19T05:05:38;99665.03;;;24.99;100.00
74524;BME280;63074;44.696;10.358;2023-09-19T05:08:07;99673.66;;;25.09;100.00
74524;BME280;63074;44.696;10.358;2023-09-19T05:10:35;99669.97;;;25.17;100.00
74524;BME280;63074;44.696;10.358;2023-09-19T05:13:04;99675.63;;;25.33;100.00
74524;BME280;63074;44.696;10.358;2023-09-19T05:15:31;99679.78;;;25.88;100.00
74524;BME280;63074;44.696;10.358;2023-09-19T05:17:57;99685.16;;;25.97;100.00
74524;BME280;63074;44.696;10.358;2023-09-19T05:20:23;99695.44;;;26.00;100.00
74524;BME280;63074;44.696;10.358;2023-09-19T05:23:04;99703.88;;;26.43;100.00
74524;BME280;63074;44.696;10.358;2023-09-19T05:25:35;99707.44;;;26.44;100.00
74524;BME280;63074;44.696;10.358;2023-09-19T05:28:03;99710.69;;;26.21;100.00
74524;BME280;63074;44.696;10.358;2023-09-19T05:30:32;99711.50;;;26.22;100.00
74524;BME280;63074;44.696;10.358;2023-09-19T05:32:59;99717.69;;;26.19;100.00
74524;BME280;63074;44.696;10.358;2023-09-19T05:35:26;99725.16;;;25.57;100.00
74524;BME280;63074;44.696;10.358;2023-09-19T05:37:54;99724.72;;;25.80;100.00
74524;BME280;63074;44.696;10.358;2023-09-19T05:40:22;99715.84;;;26.11;100.00
74524;BME280;63074;44.696;10.358;2023-09-19T05:42:49;99726.38;;;26.33;100.00
74524;BME280;63074;44.696;10.358;2023-09-19T05:45:17;99728.81;;;26.63;100.00
74524;BME280;63074;44.696;10.358;2023-09-19T05:47:50;99737.19;;;26.66;100.00
74524;BME280;63074;44.696;10.358;2023-09-19T05:50:17;99744.41;;;26.71;100.00
74524;BME280;63074;44.696;10.358;2023-09-19T05:52:47;99748.09;;;26.75;100.00
74524;BME280;63074;44.696;10.358;2023-09-19T05:55:18;99750.88;;;26.63;100.00
74524;BME280;63074;44.696;10.358;2023-09-19T05:57:50;99746.59;;;26.25;100.00
74524;BME280;63074;44.696;10.358;2023-09-19T06:00:21;99754.66;;;26.58;100.00
74524;BME280;63074;44.696;10.358;2023-09-19T06:02:58;99759.16;;;26.90;100.00
74524;BME280;63074;44.696;10.358;2023-09-19T06:05:25;99776.19;;;27.36;100.00
74524;BME280;63074;44.696;10.358;2023-09-19T06:07:58;99773.28;;;27.17;100.00
74524;BME280;63074;44.696;10.358;2023-09-19T06:10:27;99767.72;;;27.45;100.00
74524;BME280;63074;44.696;10.358;2023-09-19T06:12:54;99773.03;;;27.22;100.00
74524;BME280;63074;44.696;10.358;2023-09-19T06:15:24;99772.09;;;27.30;100.00
74524;BME280;63074;44.696;10.358;2023-09-19T06:17:52;99773.38;;;26.92;100.00
74524;BME280;63074;44.696;10.358;2023-09-19T06:20:23;99772.94;;;27.18;100.00
74524;BME280;63074;44.696;10.358;2023-09-19T06:22:50;99777.50;;;27.27;100.00
74524;BME280;63074;44.696;10.358;2023-09-19T06:25:17;99776.59;;;27.22;100.00
74524;BME280;63074;44.696;10.358;2023-09-19T06:27:46;99782.13;;;27.66;100.00
74524;BME280;63074;44.696;10.358;2023-09-19T06:30:13;99781.44;;;27.57;100.00
74524;BME280;63074;44.696;10.358;2023-09-19T06:32:41;99789.53;;;27.50;100.00
74524;BME280;63074;44.696;10.358;2023-09-19T06:35:11;99788.88;;;27.25;100.00
74524;BME280;63074;44.696;10.358;2023-09-19T06:37:38;99792.25;;;27.62;100.00
74524;BME280;63074;44.696;10.358;2023-09-19T06:40:14;99789.19;;;28.14;100.00
74524;BME280;63074;44.696;10.358;2023-09-19T06:42:45;99789.41;;;27.59;100.00
74524;BME280;63074;44.696;10.358;2023-09-19T06:45:13;99785.28;;;28.15;100.00
74524;BME280;63074;44.696;10.358;2023-09-19T06:47:47;99790.88;;;27.40;100.00
74524;BME280;63074;44.696;10.358;2023-09-19T06:50:20;99786.34;;;28.11;100.00
74524;BME280;63074;44.696;10.358;2023-09-19T06:52:49;99785.50;;;27.91;100.00
74524;BME280;63074;44.696;10.358;2023-09-19T06:55:18;99784.91;;;28.33;100.00
74524;BME280;63074;44.696;10.358;2023-09-19T06:57:45;99781.56;;;28.23;100.00
74524;BME280;63074;44.696;10.358;2023-09-19T07:00:13;99789.59;;;27.81;100.00
74524;BME280;63074;44.696;10.358;2023-09-19T07:02:44;99802.66;;;28.16;100.00
74524;BME280;63074;44.696;10.358;2023-09-19T07:05:11;99795.66;;;27.87;100.00
74524;BME280;63074;44.696;10.358;2023-09-19T07:07:37;99800.00;;;27.88;100.00
74524;BME280;63074;44.696;10.358;2023-09-19T07:10:04;99795.06;;;27.50;100.00
74524;BME280;63074;44.696;10.358;2023-09-19T07:12:37;99798.75;;;27.85;100.00
74524;BME280;63074;44.696;10.358;2023-09-19T07:15:03;99804.19;;;28.29;100.00
74524;BME280;63074;44.696;10.358;2023-09-19T07:17:31;99804.59;;;28.31;100.00
74524;BME280;63074;44.696;10.358;2023-09-19T07:19:59;99804.25;;;28.17;100.00
74524;BME280;63074;44.696;10.358;2023-09-19T07:22:27;99801.53;;;28.71;100.00
74524;BME280;63074;44.696;10.358;2023-09-19T07:24:53;99801.44;;;28.48;100.00
74524;BME280;63074;44.696;10.358;2023-09-19T07:27:19;99796.09;;;28.75;100.00
74524;BME280;63074;44.696;10.358;2023-09-19T07:29:45;99801.78;;;27.96;100.00
74524;BME280;63074;44.696;10.358;2023-09-19T07:32:11;99805.66;;;28.42;100.00
74524;BME280;63074;44.696;10.358;2023-09-19T07:34:39;99804.56;;;28.47;100.00
74524;BME280;63074;44.696;10.358;2023-09-19T07:37:06;99807.56;;;28.07;100.00
74524;BME280;63074;44.696;10.358;2023-09-19T07:39:33;99806.41;;;28.08;100.00
74524;BME280;63074;44.696;10.358;2023-09-19T07:42:00;99805.44;;;27.69;100.00
74524;BME280;63074;44.696;10.358;2023-09-19T07:44:26;99808.84;;;28.79;100.00
74524;BME280;63074;44.696;10.358;2023-09-19T07:46:52;99817.88;;;28.61;100.00
74524;BME280;63074;44.696;10.358;2023-09-19T07:49:19;99815.22;;;28.64;100.00
74524;BME280;63074;44.696;10.358;2023-09-19T07:51:45;99813.84;;;28.74;100.00
74524;BME280;63074;44.696;10.358;2023-09-19T07:54:12;99815.50;;;28.24;100.00
74524;BME280;63074;44.696;10.358;2023-09-19T07:56:40;99820.47;;;28.69;100.00
74524;BME280;63074;44.696;10.358;2023-09-19T07:59:06;99823.47;;;28.45;100.00
74524;BME280;63074;44.696;10.358;2023-09-19T08:01:34;99819.81;;;28.76;100.00
74524;BME280;63074;44.696;10.358;2023-09-19T08:04:01;99823.50;;;28.64;100.00
74524;BME280;63074;44.696;10.358;2023-09-19T08:06:27;99818.84;;;29.03;100.00
74524;BME280;63074;44.696;10.358;2023-09-19T08:08:55;99819.53;;;29.39;100.00
74524;BME280;63074;44.696;10.358;2023-09-19T08:11:22;99815.13;;;28.96;100.00
74524;BME280;63074;44.696;10.358;2023-09-19T08:13:50;99823.72;;;28.20;100.00
74524;BME280;63074;44.696;10.358;2023-09-19T08:16:17;99824.16;;;28.22;100.00
74524;BME280;63074;44.696;10.358;2023-09-19T08:18:48;99818.50;;;29.47;100.00
74524;BME280;63074;44.696;10.358;2023-09-19T08:21:23;99823.56;;;28.48;100.00
74524;BME280;63074;44.696;10.358;2023-09-19T08:23:50;99822.63;;;28.25;100.00
74524;BME280;63074;44.696;10.358;2023-09-19T08:26:16;99821.44;;;29.35;100.00
74524;BME280;63074;44.696;10.358;2023-09-19T08:28:42;99826.81;;;28.89;100.00
74524;BME280;63074;44.696;10.358;2023-09-19T08:31:09;99817.09;;;29.56;100.00
74524;BME280;63074;44.696;10.358;2023-09-19T08:33:36;99826.78;;;28.70;100.00
74524;BME280;63074;44.696;10.358;2023-09-19T08:36:06;99818.75;;;30.07;100.00
74524;BME280;63074;44.696;10.358;2023-09-19T08:38:35;99822.41;;;28.49;100.00
74524;BME280;63074;44.696;10.358;2023-09-19T08:41:07;99826.56;;;29.13;100.00
74524;BME280;63074;44.696;10.358;2023-09-19T08:43:34;99823.38;;;30.22;100.00
74524;BME280;63074;44.696;10.358;2023-09-19T08:46:11;99817.13;;;30.55;100.00
74524;BME280;63074;44.696;10.358;2023-09-19T08:48:46;99816.91;;;30.41;100.00
74524;BME280;63074;44.696;10.358;2023-09-19T08:51:41;99812.91;;;29.24;100.00
74524;BME280;63074;44.696;10.358;2023-09-19T08:54:28;99809.41;;;30.15;100.00
74524;BME280;63074;44.696;10.358;2023-09-19T08:56:56;99825.16;;;29.23;100.00
74524;BME280;63074;44.696;10.358;2023-09-19T08:59:28;99822.03;;;30.39;100.00
74524;BME280;63074;44.696;10.358;2023-09-19T09:01:55;99821.34;;;29.50;100.00
74524;BME280;63074;44.696;10.358;2023-09-19T09:04:22;99828.75;;;29.88;100.00
74524;BME280;63074;44.696;10.358;2023-09-19T09:06:51;99828.84;;;31.01;100.00
74524;BME280;63074;44.696;10.358;2023-09-19T09:09:19;99824.84;;;30.16;100.00
74524;BME280;63074;44.696;10.358;2023-09-19T09:11:47;99832.56;;;30.82;100.00
74524;BME280;63074;44.696;10.358;2023-09-19T09:14:14;99836.84;;;30.50;100.00
74524;BME280;63074;44.696;10.358;2023-09-19T09:16:40;99839.41;;;30.36;100.00
74524;BME280;63074;44.696;10.358;2023-09-19T09:19:06;99828.28;;;29.02;100.00
74524;BME280;63074;44.696;10.358;2023-09-19T09:21:33;99829.34;;;30.24;100.00
74524;BME280;63074;44.696;10.358;2023-09-19T09:24:26;99826.72;;;29.85;100.00
74524;BME280;63074;44.696;10.358;2023-09-19T09:26:54;99827.81;;;31.46;100.00
74524;BME280;63074;44.696;10.358;2023-09-19T09:29:44;99829.81;;;30.82;100.00
74524;BME280;63074;44.696;10.358;2023-09-19T09:32:26;99827.03;;;30.82;100.00
74524;BME280;63074;44.696;10.358;2023-09-19T09:35:01;99822.19;;;30.49;100.00
74524;BME280;63074;44.696;10.358;2023-09-19T09:37:28;99816.59;;;29.51;100.00
74524;BME280;63074;44.696;10.358;2023-09-19T09:40:01;99818.59;;;29.73;100.00
74524;BME280;63074;44.696;10.358;2023-09-19T09:42:42;99822.69;;;30.02;100.00
74524;BME280;63074;44.696;10.358;2023-09-19T09:45:24;99823.44;;;29.80;100.00
74524;BME280;63074;44.696;10.358;2023-09-19T09:48:00;99824.59;;;30.51;100.00
74524;BME280;63074;44.696;10.358;2023-09-19T09:50:35;99820.50;;;29.69;100.00
74524;BME280;63074;44.696;10.358;2023-09-19T09:53:26;99817.81;;;30.22;100.00
74524;BME280;63074;44.696;10.358;2023-09-19T09:56:07;99818.31;;;30.28;100.00
74524;BME280;63074;44.696;10.358;2023-09-19T09:58:36;99818.22;;;31.07;100.00
74524;BME280;63074;44.696;10.358;2023-09-19T10:01:04;99812.84;;;30.61;100.00
74524;BME280;63074;44.696;10.358;2023-09-19T10:03:41;99805.00;;;29.65;100.00
74524;BME280;63074;44.696;10.358;2023-09-19T10:06:14;99816.13;;;29.91;100.00
74524;BME280;63074;44.696;10.358;2023-09-19T10:09:05;99809.78;;;30.13;100.00
74524;BME280;63074;44.696;10.358;2023-09-19T10:11:44;99816.63;;;30.76;100.00
74524;BME280;63074;44.696;10.358;2023-09-19T10:14:16;99816.22;;;30.21;100.00
74524;BME280;63074;44.696;10.358;2023-09-19T10:16:49;99816.75;;;30.04;100.00
74524;BME280;63074;44.696;10.358;2023-09-19T10:19:27;99815.00;;;30.71;100.00
74524;BME280;63074;44.696;10.358;2023-09-19T10:21:56;99822.56;;;31.38;100.00
74524;BME280;63074;44.696;10.358;2023-09-19T10:24:23;99818.88;;;30.40;100.00
74524;BME280;63074;44.696;10.358;2023-09-19T10:26:53;99821.78;;;32.26;100.00
74524;BME280;63074;44.696;10.358;2023-09-19T10:29:21;99818.25;;;31.84;100.00
74524;BME280;63074;44.696;10.358;2023-09-19T10:31:52;99815.72;;;30.98;100.00
74524;BME280;63074;44.696;10.358;2023-09-19T10:34:20;99824.66;;;31.51;100.00
74524;BME280;63074;44.696;10.358;2023-09-19T10:36:47;99825.47;;;30.85;100.00
74524;BME280;63074;44.696;10.358;2023-09-19T10:39:15;99828.72;;;32.05;100.00
74524;BME280;63074;44.696;10.358;2023-09-19T10:41:51;99823.03;;;31.87;100.00
74524;BME280;63074;44.696;10.358;2023-09-19T10:44:23;99821.47;;;31.12;100.00
74524;BME280;63074;44.696;10.358;2023-09-19T10:46:51;99817.50;;;31.47;100.00
74524;BME280;63074;44.696;10.358;2023-09-19T10:49:19;99810.19;;;32.20;100.00
74524;BME280;63074;44.696;10.358;2023-09-19T10:51:47;99805.56;;;31.09;100.00
74524;BME280;63074;44.696;10.358;2023-09-19T10:54:20;99805.44;;;30.69;100.00
74524;BME280;63074;44.696;10.358;2023-09-19T10:56:53;99803.09;;;31.75;100.00
74524;BME280;63074;44.696;10.358;2023-09-19T10:59:21;99806.59;;;32.78;100.00
74524;BME280;63074;44.696;10.358;2023-09-19T11:01:52;99806.78;;;32.41;100.00
74524;BME280;63074;44.696;10.358;2023-09-19T11:04:28;99798.47;;;32.44;100.00
74524;BME280;63074;44.696;10.358;2023-09-19T11:14:58;99801.78;;;32.13;100.00
74524;BME280;63074;44.696;10.358;2023-09-19T11:30:51;99798.25;;;32.78;100.00
74524;BME280;63074;44.696;10.358;2023-09-19T11:33:27;99793.13;;;32.83;100.00
74524;BME280;63074;44.696;10.358;2023-09-19T11:36:15;99795.19;;;34.75;100.00
74524;BME280;63074;44.696;10.358;2023-09-19T11:49:24;99792.16;;;33.80;100.00
74524;BME280;63074;44.696;10.358;2023-09-19T11:51:52;99787.56;;;35.63;97.87
74524;BME280;63074;44.696;10.358;2023-09-19T11:54:18;99792.00;;;35.57;91.14
74524;BME280;63074;44.696;10.358;2023-09-19T11:56:49;99790.19;;;35.29;97.69
74524;BME280;63074;44.696;10.358;2023-09-19T12:01:57;99788.03;;;34.74;92.90
74524;BME280;63074;44.696;10.358;2023-09-19T12:07:09;99782.59;;;34.10;97.84
74524;BME280;63074;44.696;10.358;2023-09-19T12:09:47;99777.47;;;35.79;89.10
74524;BME280;63074;44.696;10.358;2023-09-19T12:12:21;99782.13;;;37.33;82.44
74524;BME280;63074;44.696;10.358;2023-09-19T12:14:51;99780.06;;;36.42;85.28
74524;BME280;63074;44.696;10.358;2023-09-19T12:17:17;99772.03;;;37.66;81.47
74524;BME280;63074;44.696;10.358;2023-09-19T12:19:59;99775.56;;;38.16;74.58
74524;BME280;63074;44.696;10.358;2023-09-19T12:22:28;99770.56;;;38.04;74.05
74524;BME280;63074;44.696;10.358;2023-09-19T12:25:08;99771.47;;;38.64;74.75
74524;BME280;63074;44.696;10.358;2023-09-19T12:27:49;99761.97;;;38.58;71.39
74524;BME280;63074;44.696;10.358;2023-09-19T12:30:19;99765.31;;;37.33;74.20
74524;BME280;63074;44.696;10.358;2023-09-19T12:32:48;99761.38;;;36.35;77.30
74524;BME280;63074;44.696;10.358;2023-09-19T12:35:32;99756.97;;;35.45;80.13
74524;BME280;63074;44.696;10.358;2023-09-19T12:38:02;99770.44;;;37.38;75.89
74524;BME280;63074;44.696;10.358;2023-09-19T12:40:30;99758.09;;;39.08;67.89
74524;BME280;63074;44.696;10.358;2023-09-19T12:43:00;99765.19;;;39.65;64.41
74524;BME280;63074;44.696;10.358;2023-09-19T12:45:33;99761.38;;;39.23;65.15
74524;BME280;63074;44.696;10.358;2023-09-19T12:53:29;99748.38;;;36.14;77.14
74524;BME280;63074;44.696;10.358;2023-09-19T12:56:00;99751.78;;;38.44;65.10
74524;BME280;63074;44.696;10.358;2023-09-19T12:58:26;99751.88;;;39.33;67.58
74524;BME280;63074;44.696;10.358;2023-09-19T13:00:53;99749.97;;;39.95;65.71
74524;BME280;63074;44.696;10.358;2023-09-19T13:05:58;99743.66;;;38.30;66.65
74524;BME280;63074;44.696;10.358;2023-09-19T13:08:30;99747.09;;;38.97;65.54
74524;BME280;63074;44.696;10.358;2023-09-19T13:11:14;99746.56;;;39.02;63.34
74524;BME280;63074;44.696;10.358;2023-09-19T13:16:30;99744.22;;;38.41;60.13
74524;BME280;63074;44.696;10.358;2023-09-19T13:18:56;99744.91;;;40.19;58.18
74524;BME280;63074;44.696;10.358;2023-09-19T13:21:33;99740.66;;;39.98;56.70
74524;BME280;63074;44.696;10.358;2023-09-19T13:24:23;99744.34;;;40.11;55.20
74524;BME280;63074;44.696;10.358;2023-09-19T13:26:52;99743.38;;;39.00;56.35
74524;BME280;63074;44.696;10.358;2023-09-19T13:29:18;99744.66;;;40.71;53.19
74524;BME280;63074;44.696;10.358;2023-09-19T13:34:14;99743.19;;;40.08;49.76
74524;BME280;63074;44.696;10.358;2023-09-19T13:36:43;99742.50;;;41.29;49.56
74524;BME280;63074;44.696;10.358;2023-09-19T13:39:09;99740.13;;;40.61;51.03
74524;BME280;63074;44.696;10.358;2023-09-19T13:41:36;99746.00;;;40.66;50.87
74524;BME280;63074;44.696;10.358;2023-09-19T13:44:05;99750.22;;;41.76;48.71
74524;BME280;63074;44.696;10.358;2023-09-19T13:46:32;99742.16;;;39.37;49.23
74524;BME280;63074;44.696;10.358;2023-09-19T13:49:01;99741.16;;;40.67;50.30
74524;BME280;63074;44.696;10.358;2023-09-19T13:51:32;99742.25;;;39.99;49.65
74524;BME280;63074;44.696;10.358;2023-09-19T13:53:59;99731.09;;;39.63;51.07
74524;BME280;63074;44.696;10.358;2023-09-19T13:56:28;99740.22;;;41.24;48.48
74524;BME280;63074;44.696;10.358;2023-09-19T13:58:55;99743.00;;;40.86;48.13
74524;BME280;63074;44.696;10.358;2023-09-19T14:01:21;99730.63;;;40.42;49.16